Aérodrome :
LOGIN :

S'inscrire | Disclaimer

   EN    FR    IT 

 










Légende :    VFR   VFR Marginal   IFR   IFR Intensif   IFR Très Intensif
Visi : 
Plafond : 
>= 8 km
>= 3000ft
5 à 8 km
1000 à 3000 ft
1500m à 5 km
500 à 1000 ft
800 à 1500m
200 à 500 ft
< 800m
< 200 ft
Symboles :   Orages  Brouillard  Fortes neiges  Fortes précipitations  Vent > 20 kt
SIGMETs :   Divers  Orages  Givrage  Turbulence  Onde Orograph.  Cendres Volcan.







- Altitude de l'aérodrome : 49 ft
- Code IATA : GLZ


EHGR - Gilze-Rijen Airbase

DERNIER METAR :
  • 212225Z AUTO 10001KT 9999 FEW015CB OVC220 16/14 Q1012 BLU

METARs EXPIRÉS :
  • 212155Z AUTO 13006KT 9999 FEW015CB SCT094 OVC140 17/13 Q1012 BLU
  • 212125Z AUTO 08003KT 020V180 9999 FEW015CB SCT069 OVC110 17/14 Q1012 BLU
  • 212055Z AUTO 30003KT 260V320 9999 FEW015CB OVC076 17/14 Q1012 REDZ BLU
  • 212025Z AUTO 14005KT 110V170 9999 DZ FEW030CB BKN082 OVC088 20/12 Q1012 BLU
  • 211955Z AUTO VRB02KT 9999 SCT073 BKN086 BKN092 19/13 Q1012 BLU

Prévision TAF périmée.
Pas de NOTAMs connus pour ce terrain.



MET'MAP, la Météo Aéronautique d'un coup d'oeil ! - Copyright ORBIFLY Décembre 2007 - Disclaimer

ORBIFLY MET'MAP TEAM :

Programmation & Développement : Alexandra Zaïnal
Conception & Développement : Baudouin d'Aumeries
Co-Programmation & Développement : Marc-Olivier Méhu
Soutien technique & logistique : Manuel Goepfert

Contact : metmap@orbifly.com




SOURCES & CREDITS :

   NOAA